Pagrindinis puslapis
METAR-TAF:

METAR-TAF

Oro uostai :

Agadesas, Nigeris

platuma: 16-58N, ilguma: 007-59E, Aukštis: 501 m

Dabartinis oras

Ataskaita buvo paskelbta 9 valandos ir 21 minutes, ne 18:00 UTC
Vėjas 15 kt iš Pietryčių
Temperatūra 24°C
Drėgmė 11%
Slėgis 1017 hPa
Matomumas 10 km arba daugiau
nėra debesų žemiau 1500 m ir nėra kamuolinių lietaus debesų

METAR: DRZA 271800Z 14015KT CAVOK 24/M08 Q1017

Laikas: 04:21 (03:21 UTC)

Prognozė

Ataskaita buvo paskelbta 4 valandos ir 21 minutes, ne 23:00 UTC
Prognozė galioja nuo 28 metu 00 UTC su 28 metu 24 UTC
Vėjas 10 kt iš Rytų
Matomumas 10 km arba daugiau
nėra debesų žemiau 1500 m ir nėra kamuolinių lietaus debesų
Laikinai
nuo 28 metu 08 UTC su 28 metu 12 UTC
Vėjas 20 kt iš Rytų/Pietryčių

TAF: DRZA 272300Z 2800/2824 10010KT CAVOK TEMPO 2808/2812 12020KT

Orai ataskaitas ir orų prognozės (METAR, TAF).

turimą stotys yra geltonos ir raudonos taškus žemėlapyje.

Perkelti pele per norėdami pamatyti stoties vardą.

Tada spustelėkite, norėdami matyti oro stebėjimo ir prognozės.

Norėdami pakeisti žemėlapį: spustelėkite ant žalios mygtukų su juodo kryžiaus žemyn,; žalią mygtuką su brūkšneliu, jei norite nutolinti; arba žalių rodyklių gretimoms žemėlapius.


METAR-TAF: